WetterOnline ( https://www.wetteronline.de )

Wetter aktuell Höxter

Aktuelles Wetter: Lügde-Paenbruch (260m)

6-stündlich | Neueste Meldungen
Ortszeit Temperatur Wetter
Fr, 06.12. 1:00 -1.6° C -
Do, 05.12. 19:00 -0.1° C wolkig
Do, 05.12. 13:00 2.1° C wolkenlos
Do, 05.12. 7:00 -1.1° C wolkenlos
Do, 05.12. 1:00 -0.3° C wolkenlos
Mi, 04.12. 19:00 0.1° C Nebel
Mi, 04.12. 13:00 1.3° C bedeckt
Mi, 04.12. 7:00 1.0° C fast wolkenlos
Ortszeit Temperatur Wetter
Fr, 06.12. 5:00 -0.8° C bedeckt
Fr, 06.12. 4:50 -0.8° C bedeckt
Fr, 06.12. 4:40 -0.8° C bedeckt
Fr, 06.12. 4:30 -0.8° C bedeckt
Fr, 06.12. 4:20 -0.8° C bedeckt
Fr, 06.12. 4:10 -0.7° C bedeckt
Fr, 06.12. 4:00 -0.8° C bedeckt
Fr, 06.12. 3:30 -0.8° C bewölkt
Fr, 06.12. 3:00 -1.1° C bewölkt
Fr, 06.12. 2:30 -1.4° C wolkig
Fr, 06.12. 2:00 -1.6° C -
Ortszeit Relative Feuchte Sichtweite
Fr, 06.12. 1:00 91% 9 km
Do, 05.12. 19:00 92% 13 km
Do, 05.12. 13:00 80% 23 km
Do, 05.12. 7:00 92% 15 km
Do, 05.12. 1:00 94% 10 km
Mi, 04.12. 19:00 100% 0.8 km
Mi, 04.12. 13:00 99% 5.0 km
Mi, 04.12. 7:00 96% 5.0 km
Ortszeit Relative Feuchte Sichtweite
Fr, 06.12. 5:00 86% 16 km
Fr, 06.12. 4:50 86% -
Fr, 06.12. 4:40 86% -
Fr, 06.12. 4:30 85% 15 km
Fr, 06.12. 4:20 85% -
Fr, 06.12. 4:10 86% -
Fr, 06.12. 4:00 88% 14 km
Fr, 06.12. 3:30 89% 13 km
Fr, 06.12. 3:00 90% 11 km
Fr, 06.12. 2:30 90% 11 km
Fr, 06.12. 2:00 89% 12 km
Ortszeit Niederschlagsmenge Niederschlagsart
Fr, 06.12. 1:00 0.0 l/m2 in 6 Std. -
Do, 05.12. 19:00 0.0 l/m2 in 12 Std. -
Do, 05.12. 13:00 0.0 l/m2 in 6 Std. -
Do, 05.12. 7:00 0.0 l/m2 in 12 Std. -
Do, 05.12. 1:00 0.0 l/m2 in 6 Std. -
Mi, 04.12. 19:00 0.0 l/m2 in 12 Std. -
Mi, 04.12. 13:00 0.0 l/m2 in 6 Std. -
Mi, 04.12. 7:00 0.0 l/m2 in 12 Std. -
Ortszeit Niederschlagsmenge Niederschlagsart
Fr, 06.12. 5:00 0.0 l/m2 in 1 Std. -
Fr, 06.12. 4:50 keine Meldung -
Fr, 06.12. 4:40 keine Meldung -
Fr, 06.12. 4:30 0.0 l/m2 in 1 Std. -
Fr, 06.12. 4:20 keine Meldung -
Fr, 06.12. 4:10 keine Meldung -
Fr, 06.12. 4:00 0.0 l/m2 in 1 Std. -
Fr, 06.12. 3:30 0.0 l/m2 in 1 Std. -
Fr, 06.12. 3:00 0.0 l/m2 in 1 Std. -
Fr, 06.12. 2:30 0.0 l/m2 in 1 Std. -
Fr, 06.12. 2:00 0.0 l/m2 in 1 Std. -
Ortszeit Stärke Spitze Richtung
km/h Bft. km/h Grad Sektor
Fr, 06.12. 1:00 14 3 29 200° S
Do, 05.12. 19:00 11 2 29 190° S
Do, 05.12. 13:00 22 4 36 190° S
Do, 05.12. 7:00 11 2 19 190° S
Do, 05.12. 1:00 9 2 15 180° S
Mi, 04.12. 19:00 9 2 20 180° S
Mi, 04.12. 13:00 14 3 22 180° S
Mi, 04.12. 7:00 13 3 20 200° S
Ortszeit Stärke Spitze Richtung
km/h Bft. km/h Grad Sektor
Fr, 06.12. 5:00 19 3 31 200° S
Fr, 06.12. 4:50 19 3 - 200° S
Fr, 06.12. 4:40 19 3 - 200° S
Fr, 06.12. 4:30 22 4 32 200° S
Fr, 06.12. 4:20 22 4 - 200° S
Fr, 06.12. 4:10 22 4 - 200° S
Fr, 06.12. 4:00 20 4 30 200° S
Fr, 06.12. 3:30 17 3 30 210° SW
Fr, 06.12. 3:00 15 3 30 210° SW
Fr, 06.12. 2:30 19 3 26 220° SW
Fr, 06.12. 2:00 18 3 25 210° SW
Ortszeit Untergrenze Bedeckung Gattung
total tief tief mittel hoch
Fr, 06.12. 1:00 - - - - - -
Do, 05.12. 19:00 8400 m 8/8 0/8 - - -
Do, 05.12. 13:00 - 0/8 0/8 - - -
Do, 05.12. 7:00 - 0/8 0/8 - - -
Do, 05.12. 1:00 - 0/8 0/8 - - -
Mi, 04.12. 19:00 30 m 7/8 7/8 - - -
Mi, 04.12. 13:00 60 m 8/8 8/8 - - -
Mi, 04.12. 7:00 60 m 0/8 0/8 - - -
Ortszeit Bedeckungsgrad in Achtel und Wolkenuntergrenze
Fr, 06.12. 5:00 8(480m)
Fr, 06.12. 4:50 8(480m)
Fr, 06.12. 4:40 8(450m)
Fr, 06.12. 4:30 8(420m)
Fr, 06.12. 4:20 8(420m)
Fr, 06.12. 4:10 8(420m)
Fr, 06.12. 4:00 8(450m)
Fr, 06.12. 3:30 7(420m)
Fr, 06.12. 3:00 7(510m)
Fr, 06.12. 2:30 5(570m) 6(10500m) 6(10500m)
Fr, 06.12. 2:00 -
Ortszeit Luftdruck NN (hPa) Tendenz (hPa in 3 Std.)
Fr, 06.12. 1:00 1017 - 1,5
Do, 05.12. 19:00 1020 - 0,9
Do, 05.12. 13:00 1020 - 1,2
Do, 05.12. 7:00 1021 + 0,2
Do, 05.12. 1:00 1022 - 0,7
Mi, 04.12. 19:00 1023 - 0,4
Mi, 04.12. 13:00 1024 - 0,9
Mi, 04.12. 7:00 1025 - 0,1
Ortszeit Luftdruck NN (hPa) Tendenz (hPa in 3 Std.)
Fr, 06.12. 5:00 1015 - 1,6
Fr, 06.12. 4:50 1015 keine Meldung
Fr, 06.12. 4:40 1015 keine Meldung
Fr, 06.12. 4:30 1015 - 1,5
Fr, 06.12. 4:20 1015 keine Meldung
Fr, 06.12. 4:10 1015 keine Meldung
Fr, 06.12. 4:00 1015 - 1,5
Fr, 06.12. 3:30 1016 - 1,6
Fr, 06.12. 3:00 1016 - 1,8
Fr, 06.12. 2:30 1016 - 1,5
Fr, 06.12. 2:00 1016 - 1,7
Ortszeit Schneehöhe (cm)
Fr, 06.12. 1:00 0
Do, 05.12. 19:00 0
Do, 05.12. 13:00 0
Do, 05.12. 7:00 0
Do, 05.12. 1:00 0
Mi, 04.12. 19:00 0
Mi, 04.12. 13:00 0
Mi, 04.12. 7:00 0
Ortszeit Schneehöhe (cm)
Fr, 06.12. 5:00 0
Fr, 06.12. 4:50 0
Fr, 06.12. 4:40 0
Fr, 06.12. 4:30 0
Fr, 06.12. 4:20 0
Fr, 06.12. 4:10 0
Fr, 06.12. 4:00 0
Fr, 06.12. 3:30 0
Fr, 06.12. 3:00 0
Fr, 06.12. 2:30 0
Fr, 06.12. 2:00 0
Link zu dieser Seite / Seite empfehlen

Das Wetter in ...